TAF Text Data
IDs:
Format:
Raw Decoded Include METAR

Data at: 1405 UTC 27 Nov 2021

KCON 271125Z 2712/2812 30015G23KT P6SM OVC030
  FM271330 30015G23KT P6SM BKN050
  FM271500 29019G28KT P6SM BKN250
  FM280100 29009KT P6SM SKC